Time;durP1;ratioP1;P1;durP2;ratioP2;P2;SDS_P1;SDS_P2;PMS_P1;PMS_P2;Temp;Humidity;BMP_temperature;BMP_pressure;BME280_temperature;BME280_humidity;BME280_pressure;Samples;Min_cycle;Max_cycle;Signal;HPM_P1;HPM_P2
2022/05/19 00:03:33;;;;;;;7.53;2.70;;;20.90;99.90;;;;;;5071452;28;20569;-63
2022/05/19 00:06:01;;;;;;;4.43;2.70;;;20.90;99.90;;;;;;5071545;28;20215;-62
2022/05/19 00:08:28;;;;;;;3.47;2.53;;;20.90;99.90;;;;;;5071822;28;20287;-62
2022/05/19 00:10:58;;;;;;;5.87;2.97;;;20.90;99.90;;;;;;5071725;28;20670;-63
2022/05/19 00:13:28;;;;;;;3.73;2.30;;;20.90;99.90;;;;;;5071854;28;20607;-63
2022/05/19 00:15:54;;;;;;;3.37;3.00;;;21.00;99.90;;;;;;5071409;28;20258;-62
2022/05/19 00:18:21;;;;;;;5.17;2.53;;;21.00;99.90;;;;;;5071774;28;20666;-63
2022/05/19 00:20:48;;;;;;;4.97;2.60;;;21.00;99.90;;;;;;5071675;28;20209;-62
2022/05/19 00:23:15;;;;;;;3.40;2.43;;;21.10;99.90;;;;;;5073206;28;20229;-63
2022/05/19 00:25:42;;;;;;;4.10;2.80;;;21.10;99.90;;;;;;5078046;28;20266;-62
2022/05/19 00:28:09;;;;;;;3.60;2.47;;;21.10;99.90;;;;;;5078334;28;20672;-63
2022/05/19 00:30:38;;;;;;;4.83;2.73;;;21.10;99.90;;;;;;5078150;28;20714;-62
2022/05/19 00:33:05;;;;;;;4.53;2.53;;;21.20;99.90;;;;;;5078250;28;20251;-63
2022/05/19 00:35:32;;;;;;;3.17;2.40;;;21.20;99.90;;;;;;5078362;28;20266;-63
2022/05/19 00:37:58;;;;;;;4.30;2.23;;;21.20;99.90;;;;;;5077734;28;20736;-63
2022/05/19 00:40:25;;;;;;;3.77;2.53;;;21.20;99.90;;;;;;5078215;28;20209;-62
2022/05/19 00:42:52;;;;;;;3.37;2.60;;;21.20;99.90;;;;;;5078076;28;20654;-63
2022/05/19 00:45:22;;;;;;;3.57;2.40;;;21.10;99.90;;;;;;5078486;28;20204;-62
2022/05/19 00:47:53;;;;;;;4.73;2.53;;;21.10;99.90;;;;;;5077745;28;20573;-63
2022/05/19 00:50:23;;;;;;;4.57;2.50;;;21.10;99.90;;;;;;5078116;28;20675;-63
2022/05/19 00:52:54;;;;;;;3.93;2.50;;;21.10;99.90;;;;;;5077949;28;20229;-63
2022/05/19 00:55:27;;;;;;;3.77;2.73;;;21.10;99.90;;;;;;5078007;28;20201;-61
2022/05/19 00:57:58;;;;;;;2.73;2.30;;;21.10;99.90;;;;;;5077844;28;20267;-63
2022/05/19 01:00:25;;;;;;;11.17;2.37;;;21.10;99.90;;;;;;5077941;28;20683;-62
2022/05/19 01:02:56;;;;;;;3.87;2.50;;;21.10;99.90;;;;;;5077840;28;20286;-63
2022/05/19 01:05:31;;;;;;;3.30;2.57;;;21.10;99.90;;;;;;5077803;28;20189;-62
2022/05/19 01:08:03;;;;;;;2.90;2.40;;;21.10;99.90;;;;;;5077985;28;20204;-62
2022/05/19 01:10:29;;;;;;;4.63;2.77;;;21.10;99.90;;;;;;5078037;28;20277;-62
2022/05/19 01:12:56;;;;;;;3.87;2.27;;;21.10;99.90;;;;;;5077823;28;20225;-63
2022/05/19 01:15:23;;;;;;;4.43;2.53;;;21.10;99.90;;;;;;5077710;28;20626;-62
2022/05/19 01:17:50;;;;;;;4.83;2.77;;;21.10;99.90;;;;;;5077428;28;20250;-62
2022/05/19 01:20:21;;;;;;;4.23;2.63;;;21.10;99.90;;;;;;5078062;28;20254;-63
2022/05/19 01:22:55;;;;;;;3.87;2.80;;;21.20;99.90;;;;;;5077568;28;20647;-62
2022/05/19 01:25:30;;;;;;;5.50;2.53;;;21.20;99.90;;;;;;5077967;28;20586;-62
2022/05/19 01:27:59;;;;;;;4.10;2.30;;;21.10;99.90;;;;;;5077332;28;20262;-63
2022/05/19 01:30:26;;;;;;;2.60;2.30;;;21.20;99.90;;;;;;5077777;28;20205;-62
2022/05/19 01:32:53;;;;;;;2.80;2.20;;;21.20;99.90;;;;;;5077752;28;20278;-63
2022/05/19 01:35:21;;;;;;;7.17;2.53;;;21.20;99.90;;;;;;5075499;28;20554;-63
2022/05/19 01:37:48;;;;;;;2.77;2.30;;;21.20;99.90;;;;;;5074207;28;20216;-63
2022/05/19 01:40:28;;;;;;;3.53;2.30;;;21.20;99.90;;;;;;5074543;28;20690;-63
2022/05/19 01:43:05;;;;;;;7.83;2.70;;;21.20;99.90;;;;;;5074376;28;20255;-63
2022/05/19 01:45:48;;;;;;;3.07;2.63;;;21.10;99.90;;;;;;5074350;28;20299;-62
2022/05/19 01:48:21;;;;;;;3.13;2.60;;;21.10;99.90;;;;;;5074294;28;20254;-62
2022/05/19 01:50:54;;;;;;;5.03;2.30;;;21.00;99.90;;;;;;5074162;28;20733;-63
2022/05/19 01:53:25;;;;;;;3.63;2.50;;;21.10;99.90;;;;;;5074602;28;20295;-63
2022/05/19 01:55:57;;;;;;;3.83;2.57;;;21.10;99.90;;;;;;5074108;28;20201;-62
2022/05/19 01:58:31;;;;;;;4.27;2.40;;;21.10;99.90;;;;;;5074457;28;20201;-62
2022/05/19 02:01:03;;;;;;;4.60;2.40;;;21.10;99.90;;;;;;5074113;28;20200;-63
2022/05/19 02:03:36;;;;;;;4.70;2.50;;;21.10;99.90;;;;;;5074094;28;20229;-63
2022/05/19 02:06:10;;;;;;;6.63;2.17;;;21.10;99.90;;;;;;5073519;28;20212;-63
2022/05/19 02:08:41;;;;;;;8.37;2.50;;;21.00;99.90;;;;;;5074204;28;20634;-62
2022/05/19 02:11:13;;;;;;;5.63;2.63;;;21.00;99.90;;;;;;5073864;28;20212;-63
2022/05/19 02:13:42;;;;;;;4.07;2.50;;;21.00;99.90;;;;;;5073517;28;20201;-63
2022/05/19 02:16:13;;;;;;;3.63;2.20;;;21.00;99.90;;;;;;5073281;28;20217;-61
2022/05/19 02:18:42;;;;;;;2.83;2.50;;;21.00;99.90;;;;;;5073870;28;20270;-62
2022/05/19 02:21:08;;;;;;;2.67;2.13;;;21.00;99.90;;;;;;5073633;28;20712;-62
2022/05/19 02:23:36;;;;;;;5.77;2.57;;;21.00;99.90;;;;;;5073541;28;20224;-63
2022/05/19 02:26:03;;;;;;;5.00;2.27;;;20.90;99.90;;;;;;5073335;28;20566;-62
2022/05/19 02:28:33;;;;;;;3.07;2.20;;;20.90;99.90;;;;;;5073316;28;20623;-62
2022/05/19 02:31:01;;;;;;;6.43;2.73;;;20.90;99.90;;;;;;5073767;28;20260;-62
2022/05/19 02:33:28;;;;;;;6.17;2.80;;;20.90;99.90;;;;;;5073700;28;20200;-62
2022/05/19 02:35:55;;;;;;;3.63;2.60;;;20.80;99.90;;;;;;5073203;28;20205;-62
2022/05/19 02:38:23;;;;;;;3.63;2.83;;;20.80;99.90;;;;;;5073576;28;20729;-64
2022/05/19 02:40:50;;;;;;;5.70;2.90;;;20.80;99.90;;;;;;5073296;28;20246;-63
2022/05/19 02:43:18;;;;;;;2.90;2.50;;;20.80;99.90;;;;;;5073182;28;20645;-62
2022/05/19 02:45:45;;;;;;;5.33;3.00;;;20.80;99.90;;;;;;5073193;28;20554;-62
2022/05/19 02:48:15;;;;;;;4.27;2.67;;;20.80;99.90;;;;;;5071992;28;20216;-63
2022/05/19 02:50:42;;;;;;;3.17;2.60;;;20.70;99.90;;;;;;5072902;28;20208;-62
2022/05/19 02:53:10;;;;;;;4.50;3.13;;;20.70;99.90;;;;;;5073153;28;20216;-62
2022/05/19 02:55:37;;;;;;;4.47;2.53;;;20.70;99.90;;;;;;5072973;28;20585;-63
2022/05/19 02:58:04;;;;;;;4.83;2.50;;;20.70;99.90;;;;;;5072892;28;20250;-63
2022/05/19 03:00:30;;;;;;;4.87;2.77;;;20.70;99.90;;;;;;5072991;28;20639;-63
2022/05/19 03:02:58;;;;;;;7.80;3.70;;;20.60;99.90;;;;;;5072549;28;20233;-63
2022/05/19 03:05:29;;;;;;;3.00;2.60;;;20.60;99.90;;;;;;5072802;28;20204;-63
2022/05/19 03:07:56;;;;;;;6.50;2.83;;;20.60;99.90;;;;;;5072356;28;20214;-62
2022/05/19 03:10:23;;;;;;;6.10;2.93;;;20.60;99.90;;;;;;5072751;28;20246;-62
2022/05/19 03:12:50;;;;;;;5.53;2.93;;;20.60;99.90;;;;;;5072814;28;20247;-63
2022/05/19 03:15:17;;;;;;;4.53;2.77;;;20.60;99.90;;;;;;5072573;28;20270;-63
2022/05/19 03:17:44;;;;;;;4.37;2.80;;;20.70;99.90;;;;;;5072450;28;20204;-62
2022/05/19 03:20:12;;;;;;;4.37;2.40;;;20.70;99.90;;;;;;5072651;28;20209;-63
2022/05/19 03:22:40;;;;;;;3.80;2.83;;;20.70;99.90;;;;;;5072629;28;20229;-62
2022/05/19 03:25:08;;;;;;;6.17;3.20;;;20.70;99.90;;;;;;5072894;28;20291;-63
2022/05/19 03:27:36;;;;;;;2.93;2.53;;;20.70;99.90;;;;;;5072431;28;20209;-62
2022/05/19 03:30:05;;;;;;;4.50;2.60;;;20.60;99.90;;;;;;5072402;28;20209;-63
2022/05/19 03:32:31;;;;;;;3.30;2.87;;;20.60;99.90;;;;;;5072381;28;20270;-62
2022/05/19 03:34:58;;;;;;;3.77;2.70;;;20.50;99.90;;;;;;5072056;28;20262;-63
2022/05/19 03:37:25;;;;;;;6.13;2.40;;;20.50;99.90;;;;;;5071702;28;20205;-63
2022/05/19 03:39:53;;;;;;;4.67;2.40;;;20.50;99.90;;;;;;5072469;28;20209;-63
2022/05/19 03:42:19;;;;;;;4.67;2.57;;;20.50;99.90;;;;;;5072047;28;20221;-62
2022/05/19 03:44:46;;;;;;;3.53;2.60;;;20.50;99.90;;;;;;5072338;28;20205;-62
2022/05/19 03:47:13;;;;;;;4.83;2.70;;;20.50;99.90;;;;;;5071694;28;20234;-63
2022/05/19 03:49:39;;;;;;;3.27;2.90;;;20.50;99.90;;;;;;5072131;28;20204;-63
2022/05/19 03:52:07;;;;;;;5.83;2.87;;;20.40;99.90;;;;;;5072095;28;20229;-63
2022/05/19 03:54:34;;;;;;;3.70;2.77;;;20.40;99.90;;;;;;5072242;28;20254;-62
2022/05/19 03:57:02;;;;;;;7.17;2.90;;;20.40;99.90;;;;;;5071877;28;20209;-62
2022/05/19 03:59:28;;;;;;;4.17;2.87;;;20.30;99.90;;;;;;5071597;28;20230;-62
2022/05/19 04:01:55;;;;;;;4.20;2.73;;;20.30;99.90;;;;;;5072074;28;20233;-62
2022/05/19 04:04:22;;;;;;;4.67;2.50;;;20.30;99.90;;;;;;5071611;28;20224;-63
2022/05/19 04:06:49;;;;;;;5.10;2.80;;;20.20;99.90;;;;;;5071716;28;20205;-62
2022/05/19 04:09:15;;;;;;;4.97;2.73;;;20.10;99.90;;;;;;5071998;28;20231;-62
2022/05/19 04:11:42;;;;;;;3.00;2.70;;;20.10;99.90;;;;;;5071961;28;20225;-62
2022/05/19 04:14:12;;;;;;;7.07;2.77;;;20.10;99.90;;;;;;5071845;28;20205;-62
2022/05/19 04:16:38;;;;;;;4.93;2.60;;;20.10;99.90;;;;;;5071182;28;20224;-62
2022/05/19 04:19:05;;;;;;;4.13;2.70;;;20.10;99.90;;;;;;5071642;28;20208;-63
2022/05/19 04:21:32;;;;;;;3.00;2.70;;;20.10;99.90;;;;;;5071526;28;20228;-62
2022/05/19 04:23:59;;;;;;;5.93;2.87;;;20.10;99.90;;;;;;5071629;28;20221;-63
2022/05/19 04:26:26;;;;;;;3.63;2.50;;;20.10;99.90;;;;;;5071305;28;20297;-63
2022/05/19 04:28:53;;;;;;;6.43;2.47;;;20.20;99.90;;;;;;5071750;28;20205;-62
2022/05/19 04:31:22;;;;;;;3.60;2.50;;;20.20;99.90;;;;;;5071554;28;20235;-62
2022/05/19 04:33:48;;;;;;;3.40;2.70;;;20.20;99.90;;;;;;5071783;28;20254;-62
2022/05/19 04:36:15;;;;;;;4.07;3.10;;;20.20;99.90;;;;;;5071444;28;20262;-62
2022/05/19 04:38:42;;;;;;;2.70;2.50;;;20.20;99.90;;;;;;5071605;28;20266;-64
2022/05/19 04:41:08;;;;;;;4.00;2.40;;;20.30;99.90;;;;;;5071484;28;20270;-62
2022/05/19 04:43:35;;;;;;;3.73;3.07;;;20.30;99.90;;;;;;5071374;28;20225;-62
2022/05/19 04:46:02;;;;;;;5.47;2.53;;;20.30;99.90;;;;;;5070933;28;20205;-62
2022/05/19 04:48:30;;;;;;;2.70;2.50;;;20.30;99.90;;;;;;5068969;28;20258;-61
2022/05/19 04:50:58;;;;;;;4.87;2.90;;;20.30;99.90;;;;;;5070893;28;20733;-62
2022/05/19 04:53:28;;;;;;;9.10;3.27;;;20.40;99.90;;;;;;5071088;28;20233;-61
2022/05/19 04:55:55;;;;;;;4.87;2.87;;;20.50;99.90;;;;;;5070559;28;20205;-62
2022/05/19 04:58:23;;;;;;;3.90;2.63;;;20.50;99.90;;;;;;5071045;28;20205;-62
2022/05/19 05:00:51;;;;;;;6.50;2.60;;;20.50;99.90;;;;;;5070676;28;20208;-62
2022/05/19 05:03:18;;;;;;;7.50;3.00;;;20.60;99.90;;;;;;5071010;28;20232;-62
2022/05/19 05:05:47;;;;;;;4.73;2.63;;;20.70;99.90;;;;;;5070817;28;20258;-62
2022/05/19 05:08:13;;;;;;;2.90;2.60;;;20.70;99.90;;;;;;5070799;28;20204;-62
2022/05/19 05:10:41;;;;;;;4.53;2.70;;;20.80;99.90;;;;;;5072410;28;20205;-62
2022/05/19 05:13:08;;;;;;;4.53;2.80;;;20.90;99.90;;;;;;5074282;28;20537;-62
2022/05/19 05:15:36;;;;;;;3.30;2.27;;;21.00;99.90;;;;;;5074652;28;20679;-62
2022/05/19 05:18:04;;;;;;;3.47;2.30;;;21.10;99.90;;;;;;5073994;28;20672;-62
2022/05/19 05:20:31;;;;;;;3.97;2.60;;;21.20;99.90;;;;;;5074568;28;20201;-62
2022/05/19 05:22:59;;;;;;;5.60;2.50;;;21.20;99.90;;;;;;5074492;28;20283;-62
2022/05/19 05:25:29;;;;;;;4.03;2.40;;;21.20;99.90;;;;;;5074524;28;20327;-62
2022/05/19 05:27:56;;;;;;;3.50;2.40;;;21.30;99.90;;;;;;5074306;28;20295;-62
2022/05/19 05:30:23;;;;;;;4.20;2.50;;;21.40;99.90;;;;;;5056503;28;20619;-61
2022/05/19 05:32:50;;;;;;;6.67;2.73;;;21.40;99.90;;;;;;5053804;28;20279;-61
2022/05/19 05:35:16;;;;;;;4.10;2.27;;;21.40;99.90;;;;;;5053336;28;20212;-61
2022/05/19 05:37:43;;;;;;;5.70;2.30;;;21.20;99.90;;;;;;5053565;28;20202;-61
2022/05/19 05:40:12;;;;;;;3.13;2.50;;;21.30;99.90;;;;;;5053157;28;20255;-59
2022/05/19 05:42:40;;;;;;;4.10;2.43;;;21.30;99.90;;;;;;5073147;28;20220;-61
2022/05/19 05:45:09;;;;;;;3.63;2.23;;;21.30;99.90;;;;;;5073953;28;20229;-61
2022/05/19 05:47:35;;;;;;;4.60;2.60;;;21.30;99.90;;;;;;5073151;28;20296;-61
2022/05/19 05:50:03;;;;;;;2.97;2.37;;;21.30;99.90;;;;;;5073390;28;20201;-59
2022/05/19 05:52:30;;;;;;;5.63;2.80;;;21.30;99.90;;;;;;5072466;28;20270;-60
2022/05/19 05:54:59;;;;;;;5.47;2.60;;;21.40;99.90;;;;;;5073429;28;20204;-60
2022/05/19 05:57:27;;;;;;;3.03;2.53;;;21.50;99.90;;;;;;5072611;28;20248;-60
2022/05/19 05:59:54;;;;;;;2.53;2.30;;;21.50;99.90;;;;;;5071501;28;20762;-61
2022/05/19 06:02:21;;;;;;;3.47;2.40;;;21.50;99.90;;;;;;5073442;28;20267;-61
2022/05/19 06:04:48;;;;;;;3.23;2.20;;;21.60;99.90;;;;;;5072527;28;20231;-61
2022/05/19 06:07:14;;;;;;;6.67;5.20;;;21.60;99.90;;;;;;5072661;28;20627;-60
2022/05/19 06:09:43;;;;;;;5.37;3.40;;;21.60;99.90;;;;;;5072680;28;20205;-61
2022/05/19 06:12:11;;;;;;;5.27;3.53;;;21.70;99.90;;;;;;5072436;28;20789;-60
2022/05/19 06:14:39;;;;;;;4.13;2.70;;;21.80;99.90;;;;;;5073300;28;20251;-61
2022/05/19 06:17:06;;;;;;;4.77;2.93;;;21.90;99.90;;;;;;5072524;28;20213;-60
2022/05/19 06:19:32;;;;;;;6.13;3.00;;;21.90;99.90;;;;;;5072664;28;20208;-61
2022/05/19 06:21:59;;;;;;;4.53;2.80;;;22.00;99.90;;;;;;5072199;28;20233;-59
2022/05/19 06:24:26;;;;;;;3.43;2.70;;;22.10;99.90;;;;;;5072502;28;20228;-57
2022/05/19 06:26:52;;;;;;;3.40;2.90;;;22.00;99.90;;;;;;5072937;28;20205;-59
2022/05/19 06:29:19;;;;;;;5.40;2.80;;;22.10;99.90;;;;;;5072371;28;20209;-60
2022/05/19 06:31:47;;;;;;;3.57;2.57;;;22.10;99.90;;;;;;5072338;28;20229;-58
2022/05/19 06:34:14;;;;;;;3.33;2.60;;;22.20;99.90;;;;;;5071860;28;20208;-58
2022/05/19 06:36:41;;;;;;;5.93;2.90;;;22.30;99.90;;;;;;5072668;28;20262;-60
2022/05/19 06:39:07;;;;;;;5.57;3.03;;;22.30;99.90;;;;;;5072583;28;20205;-61
2022/05/19 06:44:18;;;;;;;6.67;2.80;;;22.30;99.90;;;;;;5072762;28;20227;-61
2022/05/19 06:46:47;;;;;;;2.77;2.40;;;22.40;99.90;;;;;;5071634;28;20267;-61
2022/05/19 06:49:14;;;;;;;4.60;2.70;;;22.50;99.90;;;;;;5072548;28;20209;-62
2022/05/19 06:51:41;;;;;;;5.50;2.60;;;22.40;99.90;;;;;;5071999;28;20290;-62
2022/05/19 06:54:07;;;;;;;7.77;2.70;;;22.40;99.90;;;;;;5072378;28;20250;-63
2022/05/19 06:56:35;;;;;;;3.00;2.70;;;22.50;99.90;;;;;;5071718;28;20675;-63
2022/05/19 06:59:02;;;;;;;4.53;2.80;;;22.60;99.90;;;;;;5071838;28;20702;-63
2022/05/19 07:01:29;;;;;;;5.83;2.70;;;22.70;99.90;;;;;;5071634;28;20673;-63
2022/05/19 07:03:58;;;;;;;4.13;2.60;;;22.80;99.90;;;;;;5071874;28;20227;-62
2022/05/19 07:06:25;;;;;;;5.17;3.00;;;22.90;99.90;;;;;;5072005;28;20205;-63
2022/05/19 07:08:52;;;;;;;3.20;2.53;;;23.10;99.90;;;;;;5072345;28;20204;-62
2022/05/19 07:11:27;;;;;;;3.90;2.50;;;23.20;99.90;;;;;;5071364;28;20201;-62
2022/05/19 07:13:56;;;;;;;2.93;2.23;;;23.40;99.90;;;;;;5072047;28;20209;-62
2022/05/19 07:16:23;;;;;;;3.83;2.73;;;23.50;99.90;;;;;;5071362;28;20217;-63
2022/05/19 07:18:50;;;;;;;5.03;2.70;;;23.70;99.90;;;;;;5072054;28;20737;-62
2022/05/19 07:21:18;;;;;;;3.70;2.80;;;23.70;99.90;;;;;;5071468;28;20262;-61
2022/05/19 07:23:47;;;;;;;4.13;2.53;;;23.80;99.90;;;;;;5071813;28;20256;-62
2022/05/19 07:26:14;;;;;;;6.13;2.83;;;23.80;99.90;;;;;;5071582;28;20205;-62
2022/05/19 07:28:40;;;;;;;4.77;2.63;;;23.90;99.90;;;;;;5071363;28;20213;-62
2022/05/19 07:31:07;;;;;;;5.37;2.70;;;23.90;99.90;;;;;;5071487;28;20250;-62
2022/05/19 07:33:38;;;;;;;5.30;2.70;;;23.80;99.90;;;;;;5070942;28;20270;-62
2022/05/19 07:36:08;;;;;;;3.23;2.67;;;23.90;99.90;;;;;;5071536;28;20201;-62
2022/05/19 07:38:36;;;;;;;5.40;3.20;;;24.00;99.90;;;;;;5071625;28;20208;-61
2022/05/19 07:41:04;;;;;;;3.90;2.43;;;24.10;99.90;;;;;;5070530;28;20228;-62
2022/05/19 07:43:37;;;;;;;4.60;2.53;;;24.30;99.90;;;;;;5071755;28;20231;-62
2022/05/19 07:46:05;;;;;;;4.27;2.50;;;24.10;99.90;;;;;;5071145;28;20205;-61
2022/05/19 07:48:32;;;;;;;4.33;2.70;;;24.00;99.90;;;;;;5071522;28;20215;-64
2022/05/19 07:50:59;;;;;;;2.80;2.50;;;24.30;99.90;;;;;;5070827;28;20232;-64
2022/05/19 07:53:26;;;;;;;7.43;2.93;;;24.50;99.90;;;;;;5070982;28;20221;-62
2022/05/19 07:55:54;;;;;;;5.17;2.70;;;24.50;99.90;;;;;;5071081;28;20215;-63
2022/05/19 07:58:21;;;;;;;3.80;2.40;;;24.30;99.90;;;;;;5070899;28;20258;-62
2022/05/19 08:00:48;;;;;;;2.97;2.57;;;24.20;99.90;;;;;;5070954;28;20627;-62
2022/05/19 08:03:15;;;;;;;5.17;3.10;;;24.30;99.90;;;;;;5070839;28;20644;-62
2022/05/19 08:05:41;;;;;;;4.10;2.97;;;24.40;99.90;;;;;;5071390;28;20205;-62
2022/05/19 08:08:08;;;;;;;3.03;2.50;;;24.60;99.90;;;;;;5071421;28;20593;-63
2022/05/19 08:10:35;;;;;;;4.00;3.00;;;24.70;99.90;;;;;;5071131;28;20255;-62
2022/05/19 08:15:49;;;;;;;6.93;2.97;;;25.00;99.90;;;;;;5070991;28;20224;-62
2022/05/19 08:18:17;;;;;;;7.80;3.30;;;25.10;99.90;;;;;;5070924;28;20201;-62
2022/05/19 08:20:46;;;;;;;3.67;2.73;;;25.00;99.90;;;;;;5070507;28;20209;-62
2022/05/19 08:23:17;;;;;;;3.07;2.77;;;25.10;99.90;;;;;;5070854;28;20229;-63
2022/05/19 08:25:44;;;;;;;3.47;2.50;;;25.30;99.90;;;;;;5071384;28;20225;-63
2022/05/19 08:28:14;;;;;;;3.47;2.67;;;25.50;99.90;;;;;;5070539;28;20295;-63
2022/05/19 08:30:42;;;;;;;3.57;2.77;;;25.60;99.90;;;;;;5070783;28;20220;-63
2022/05/19 08:33:08;;;;;;;4.93;2.57;;;25.50;99.90;;;;;;5070314;28;20252;-62
2022/05/19 08:35:35;;;;;;;4.20;2.80;;;25.70;99.90;;;;;;5071228;28;20258;-62
2022/05/19 08:38:02;;;;;;;6.27;3.17;;;25.80;99.90;;;;;;5070978;28;20651;-63
2022/05/19 08:40:30;;;;;;;6.87;2.50;;;25.70;99.90;;;;;;5070290;28;20254;-64
2022/05/19 08:43:00;;;;;;;4.07;2.63;;;25.70;99.90;;;;;;5070743;28;20236;-65
2022/05/19 08:45:32;;;;;;;3.40;2.83;;;25.60;99.90;;;;;;5073299;28;20298;-65
2022/05/19 08:48:05;;;;;;;3.10;2.70;;;25.60;99.90;;;;;;5074656;28;20296;-63
2022/05/19 08:50:39;;;;;;;3.40;2.60;;;25.40;99.90;;;;;;5074623;28;20254;-62
2022/05/19 08:53:06;;;;;;;3.40;3.07;;;25.50;99.90;;;;;;5074499;28;20228;-62
2022/05/19 08:55:34;;;;;;;2.80;2.33;;;25.50;99.90;;;;;;5074946;28;20197;-63
2022/05/19 08:58:11;;;;;;;5.33;2.80;;;25.30;99.90;;;;;;5073890;28;20259;-63
2022/05/19 09:00:43;;;;;;;3.30;2.40;;;25.40;99.90;;;;;;5074831;28;20212;-63
2022/05/19 09:03:18;;;;;;;5.27;3.00;;;25.50;99.90;;;;;;5074375;28;20275;-63
2022/05/19 09:06:01;;;;;;;3.20;2.90;;;25.60;99.90;;;;;;5074657;28;20234;-64
2022/05/19 09:08:39;;;;;;;3.97;2.77;;;25.80;99.90;;;;;;5074284;28;20205;-63
2022/05/19 09:11:12;;;;;;;3.70;2.43;;;25.80;99.90;;;;;;5074153;28;20255;-64
2022/05/19 09:13:46;;;;;;;7.27;2.80;;;25.70;99.90;;;;;;5074540;28;20209;-63
2022/05/19 09:16:18;;;;;;;4.67;2.93;;;25.60;99.90;;;;;;5073685;28;20271;-63
2022/05/19 09:18:48;;;;;;;4.83;3.00;;;25.70;99.90;;;;;;5074341;28;20213;-64
2022/05/19 09:21:14;;;;;;;5.63;2.90;;;25.50;99.90;;;;;;5073689;28;20299;-63
2022/05/19 09:23:41;;;;;;;4.27;2.70;;;25.60;99.90;;;;;;5074331;28;20573;-62
2022/05/19 09:26:34;;;;;;;5.73;2.90;;;25.60;99.90;;;;;;5074002;28;20204;-62
2022/05/19 09:29:07;;;;;;;4.97;2.90;;;25.80;99.90;;;;;;5074038;28;20213;-63
2022/05/19 09:31:37;;;;;;;6.67;2.63;;;26.00;99.90;;;;;;5074011;28;20225;-62
2022/05/19 09:34:06;;;;;;;4.50;2.60;;;26.10;99.90;;;;;;5073386;28;20725;-62
2022/05/19 09:36:38;;;;;;;4.47;2.87;;;26.10;99.90;;;;;;5073582;28;20819;-63
2022/05/19 09:39:08;;;;;;;3.80;2.87;;;25.90;99.90;;;;;;5073712;28;20296;-63
2022/05/19 09:41:40;;;;;;;2.97;2.70;;;26.00;99.90;;;;;;5073585;28;20229;-63
2022/05/19 09:44:12;;;;;;;4.17;2.70;;;26.20;99.90;;;;;;5073879;28;20249;-63
2022/05/19 09:46:43;;;;;;;3.33;2.73;;;26.20;99.90;;;;;;5073340;28;20300;-61
2022/05/19 09:49:25;;;;;;;5.77;2.63;;;26.40;99.90;;;;;;5073889;28;20205;-61
2022/05/19 09:51:52;;;;;;;3.53;3.13;;;26.50;99.90;;;;;;5072988;28;20627;-61
2022/05/19 09:54:19;;;;;;;3.30;2.90;;;26.60;99.90;;;;;;5073487;28;20259;-61
2022/05/19 09:56:49;;;;;;;4.33;3.00;;;26.50;99.90;;;;;;5072349;28;20250;-61
2022/05/19 09:59:17;;;;;;;5.23;2.93;;;26.70;99.90;;;;;;5073819;28;20201;-64
2022/05/19 10:01:47;;;;;;;3.83;3.07;;;26.80;99.90;;;;;;5073343;28;20228;-62
2022/05/19 10:04:20;;;;;;;5.43;2.90;;;26.70;99.90;;;;;;5072909;28;20279;-62
2022/05/19 10:06:51;;;;;;;5.37;3.00;;;26.80;99.90;;;;;;5073030;28;20244;-63
2022/05/19 10:09:20;;;;;;;4.07;2.80;;;26.90;99.90;;;;;;5073191;28;20697;-64
2022/05/19 10:11:51;;;;;;;4.13;2.80;;;26.90;99.90;;;;;;5073184;28;20229;-64
2022/05/19 10:14:20;;;;;;;6.83;2.80;;;27.00;99.90;;;;;;5072906;28;20201;-62
2022/05/19 10:17:02;;;;;;;6.67;3.07;;;27.10;99.90;;;;;;5072676;28;20217;-62
2022/05/19 10:19:42;;;;;;;4.33;2.93;;;27.10;99.90;;;;;;5073086;28;20622;-62
2022/05/19 10:22:44;;;;;;;7.00;2.80;;;27.30;99.90;;;;;;5072612;28;20229;-62
2022/05/19 10:25:23;;;;;;;4.67;3.23;;;27.40;99.90;;;;;;5073350;28;20224;-64
2022/05/19 10:31:05;;;;;;;3.73;2.80;;;27.30;99.90;;;;;;5070937;28;20219;-62
2022/05/19 10:33:43;;;;;;;6.27;3.10;;;27.20;99.90;;;;;;5072412;28;20597;-62
2022/05/19 10:36:18;;;;;;;8.47;3.20;;;27.20;99.90;;;;;;5072640;28;20873;-64
2022/05/19 10:38:53;;;;;;;4.87;2.90;;;27.30;99.90;;;;;;5072336;28;20234;-63
2022/05/19 10:41:37;;;;;;;4.23;3.03;;;27.40;99.90;;;;;;5072848;28;20213;-64
2022/05/19 10:44:20;;;;;;;5.03;2.67;;;27.50;99.90;;;;;;5072385;28;20204;-62
2022/05/19 10:46:56;;;;;;;8.17;2.80;;;27.50;99.90;;;;;;5072502;28;20205;-64
2022/05/19 10:49:50;;;;;;;4.40;3.13;;;27.80;99.90;;;;;;5072828;28;20205;-63
2022/05/19 10:52:28;;;;;;;5.63;3.10;;;27.90;99.90;;;;;;5072455;28;20224;-64
2022/05/19 10:55:08;;;;;;;4.17;2.80;;;28.10;99.90;;;;;;5072583;28;20562;-65
2022/05/19 10:57:57;;;;;;;4.97;3.20;;;28.30;99.90;;;;;;5070805;28;20209;-62
2022/05/19 11:00:32;;;;;;;3.83;3.43;;;28.30;99.90;;;;;;5072781;28;20240;-62
2022/05/19 11:03:30;;;;;;;3.37;2.93;;;28.50;99.90;;;;;;5071926;28;20224;-62
2022/05/19 11:06:08;;;;;;;4.60;3.50;;;28.60;99.90;;;;;;5072228;28;20229;-62
2022/05/19 11:08:47;;;;;;;3.70;3.23;;;28.50;99.90;;;;;;5071025;28;20241;-63
2022/05/19 11:11:20;;;;;;;5.17;2.87;;;28.60;99.90;;;;;;5072021;28;20574;-62
2022/05/19 11:13:58;;;;;;;4.57;2.80;;;28.40;99.90;;;;;;5072132;28;20248;-63
2022/05/19 11:16:39;;;;;;;3.60;2.63;;;28.30;99.90;;;;;;5071965;28;20733;-63
2022/05/19 11:19:13;;;;;;;7.97;3.27;;;28.30;99.90;;;;;;5072122;28;20215;-63
2022/05/19 11:21:45;;;;;;;5.60;3.10;;;28.30;99.90;;;;;;5071266;28;20224;-62
2022/05/19 11:24:21;;;;;;;3.43;2.77;;;28.60;99.90;;;;;;5071902;28;20640;-63
2022/05/19 11:26:54;;;;;;;4.70;3.30;;;28.70;99.90;;;;;;5071159;28;20610;-63
2022/05/19 11:29:28;;;;;;;3.30;3.00;;;28.50;99.90;;;;;;5072003;28;20207;-63
2022/05/19 11:32:03;;;;;;;4.77;2.87;;;28.10;99.90;;;;;;5071515;28;20220;-63
2022/05/19 11:34:38;;;;;;;5.60;3.03;;;27.90;99.90;;;;;;5071939;28;20615;-62
2022/05/19 11:37:25;;;;;;;4.03;3.07;;;27.50;99.90;;;;;;5071792;28;20212;-61
2022/05/19 11:40:04;;;;;;;6.33;3.03;;;27.50;99.90;;;;;;5072028;28;20235;-61
2022/05/19 11:42:40;;;;;;;5.10;3.20;;;27.50;99.90;;;;;;5071500;28;20229;-62
2022/05/19 11:45:10;;;;;;;5.93;3.13;;;27.60;99.90;;;;;;5071351;28;20232;-62
2022/05/19 11:56:09;;;;;;;3.60;2.60;;;28.20;99.90;;;;;;5071064;28;20736;-63
2022/05/19 11:58:38;;;;;;;4.73;3.20;;;28.70;99.90;;;;;;5071877;28;20212;-64
2022/05/19 12:01:10;;;;;;;3.60;2.87;;;28.90;99.90;;;;;;5070994;28;20215;-63
2022/05/19 12:03:43;;;;;;;7.17;2.97;;;28.70;99.90;;;;;;5071118;28;20555;-63
2022/05/19 12:06:20;;;;;;;3.70;3.40;;;28.50;99.90;;;;;;5071019;28;20233;-62
2022/05/19 12:08:58;;;;;;;3.40;3.00;;;28.30;99.90;;;;;;5071078;28;20741;-62
2022/05/19 12:11:29;;;;;;;3.67;2.90;;;28.20;99.90;;;;;;5070950;28;20308;-62
2022/05/19 12:14:15;;;;;;;5.97;2.90;;;28.30;99.90;;;;;;5070761;28;20208;-62
2022/05/19 12:16:48;;;;;;;3.27;2.97;;;28.60;99.90;;;;;;5070581;28;20216;-63
2022/05/19 12:19:33;;;;;;;3.43;2.90;;;28.90;99.90;;;;;;5070727;28;20204;-63
2022/05/19 12:22:01;;;;;;;5.30;2.90;;;29.00;99.90;;;;;;5071068;28;20224;-63
2022/05/19 12:24:33;;;;;;;5.23;3.30;;;29.00;99.90;;;;;;5070904;28;20565;-63
2022/05/19 12:27:04;;;;;;;4.17;3.07;;;29.10;99.90;;;;;;5070610;28;20201;-62
2022/05/19 12:29:38;;;;;;;4.50;3.10;;;28.90;99.90;;;;;;5071227;28;20324;-62
2022/05/19 12:32:17;;;;;;;3.67;3.00;;;29.10;99.90;;;;;;5070176;28;20231;-61
2022/05/19 12:34:49;;;;;;;5.03;3.10;;;29.10;99.90;;;;;;5070950;28;20205;-63
2022/05/19 12:37:45;;;;;;;7.07;3.20;;;29.10;99.90;;;;;;5070601;28;20204;-61
2022/05/19 12:40:24;;;;;;;3.45;3.03;;;29.30;99.90;;;;;;5071057;28;20216;-62
2022/05/19 12:42:52;;;;;;;5.30;3.13;;;29.60;99.90;;;;;;5070725;28;20220;-63
2022/05/19 12:45:21;;;;;;;4.07;3.00;;;29.40;99.90;;;;;;5070582;28;20224;-63
2022/05/19 12:47:57;;;;;;;4.53;3.00;;;29.30;99.90;;;;;;5070134;28;20396;-62
2022/05/19 12:50:43;;;;;;;9.73;3.53;;;28.90;99.90;;;;;;5070886;28;20255;-63
2022/05/19 12:53:13;;;;;;;4.37;2.83;;;29.00;99.90;;;;;;5070912;28;20595;-62
2022/05/19 12:55:53;;;;;;;3.70;2.60;;;28.80;99.90;;;;;;5070209;28;20280;-62
2022/05/19 12:58:48;;;;;;;5.00;2.70;;;29.00;99.90;;;;;;5070913;28;20894;-62
2022/05/19 13:01:21;;;;;;;3.40;2.50;;;28.90;99.90;;;;;;5068859;28;20201;-63
2022/05/19 13:03:51;;;;;;;5.23;3.13;;;28.80;99.90;;;;;;5070790;28;20216;-63
2022/05/19 13:06:22;;;;;;;5.50;2.90;;;28.60;99.90;;;;;;5070605;28;20228;-64
2022/05/19 13:08:53;;;;;;;4.77;2.93;;;28.60;99.90;;;;;;5071205;28;20300;-62
2022/05/19 13:11:25;;;;;;;5.53;2.80;;;28.40;99.90;;;;;;5071339;28;20201;-61
2022/05/19 13:13:55;;;;;;;4.63;2.90;;;28.00;99.90;;;;;;5070907;28;20213;-61
2022/05/19 13:16:27;;;;;;;4.03;3.20;;;27.70;99.90;;;;;;5069873;28;20305;-61
2022/05/19 13:18:56;;;;;;;4.20;3.00;;;27.40;99.90;;;;;;5070469;28;20209;-64
2022/05/19 13:21:26;;;;;;;12.13;3.00;;;27.20;99.90;;;;;;5070480;28;20658;-63
2022/05/19 13:23:54;;;;;;;3.70;2.80;;;27.00;99.90;;;;;;5070609;28;20295;-64